createdAt,value
2018-07-22T00:02:11.704Z,22.90
2018-07-22T00:07:07.246Z,23.00
2018-07-22T00:12:02.561Z,22.80
2018-07-22T00:14:30.216Z,22.90
2018-07-22T00:16:57.986Z,22.80
2018-07-22T00:19:25.743Z,22.70
2018-07-22T00:21:53.673Z,23.00
2018-07-22T00:24:21.397Z,22.90
2018-07-22T00:26:49.167Z,23.00
2018-07-22T00:29:16.952Z,22.90
2018-07-22T00:31:44.733Z,22.90
2018-07-22T00:34:12.467Z,22.80
2018-07-22T00:39:09.495Z,22.70
2018-07-22T00:41:37.207Z,22.60
2018-07-22T00:44:04.901Z,22.50
2018-07-22T00:46:32.598Z,22.60
2018-07-22T00:49:00.338Z,22.70
2018-07-22T00:51:28.069Z,22.60
2018-07-22T00:53:55.930Z,22.60
2018-07-22T00:56:23.730Z,22.90
2018-07-22T00:58:51.534Z,22.80
2018-07-22T01:01:19.557Z,22.90
2018-07-22T01:03:47.737Z,22.80
2018-07-22T01:06:15.567Z,22.80
2018-07-22T01:08:43.284Z,22.60
2018-07-22T01:11:11.068Z,22.70
2018-07-22T01:13:38.904Z,22.80
2018-07-22T01:16:06.690Z,22.70
2018-07-22T01:18:34.400Z,22.50
2018-07-22T01:23:30.791Z,22.40
2018-07-22T01:25:58.510Z,22.60
2018-07-22T01:28:26.343Z,22.40
2018-07-22T01:30:54.114Z,22.40
2018-07-22T01:33:21.923Z,22.60
2018-07-22T01:35:49.668Z,22.60
2018-07-22T01:38:17.466Z,22.50
2018-07-22T01:40:45.182Z,22.50
2018-07-22T01:43:12.923Z,22.30
2018-07-22T01:45:40.622Z,22.40
2018-07-22T01:48:08.365Z,22.40
2018-07-22T01:50:36.081Z,22.30
2018-07-22T01:53:03.781Z,22.40
2018-07-22T01:55:31.496Z,22.50
2018-07-22T01:57:59.165Z,22.40
2018-07-22T02:00:26.962Z,22.50
2018-07-22T02:05:26.197Z,22.30
2018-07-22T02:07:53.905Z,22.10
2018-07-22T02:10:21.660Z,22.00
2018-07-22T02:12:49.400Z,22.30
2018-07-22T02:15:17.179Z,22.40
2018-07-22T02:17:44.890Z,22.30
2018-07-22T02:20:12.594Z,22.30
2018-07-22T02:22:40.315Z,22.30
2018-07-22T02:25:08.043Z,22.40
2018-07-22T02:27:35.781Z,22.40
2018-07-22T02:30:04.072Z,22.40
2018-07-22T02:32:31.880Z,22.40
2018-07-22T02:34:59.652Z,22.20
2018-07-22T02:37:27.668Z,22.20
2018-07-22T02:39:55.428Z,22.20
2018-07-22T02:42:23.176Z,22.00
2018-07-22T02:44:50.988Z,22.10
2018-07-22T02:47:18.708Z,22.00
2018-07-22T02:49:46.381Z,21.90
2018-07-22T02:52:14.058Z,21.80
2018-07-22T02:54:41.710Z,21.90
2018-07-22T02:57:09.743Z,22.10
2018-07-22T02:59:37.459Z,21.90
2018-07-22T03:02:05.236Z,22.10
2018-07-22T03:04:33.068Z,22.10
2018-07-22T03:07:00.816Z,21.90
2018-07-22T03:09:28.505Z,22.00
2018-07-22T03:11:56.254Z,22.10
2018-07-22T03:14:23.980Z,21.90
2018-07-22T03:16:51.889Z,21.80
2018-07-22T03:19:19.606Z,21.60
2018-07-22T03:21:47.348Z,21.80
2018-07-22T03:26:42.772Z,21.80
2018-07-22T03:29:10.458Z,21.70
2018-07-22T03:31:38.419Z,21.70
2018-07-22T03:34:06.363Z,21.60
2018-07-22T03:36:34.093Z,21.90
2018-07-22T03:39:01.844Z,22.00
2018-07-22T03:43:57.289Z,21.80
2018-07-22T03:46:25.047Z,21.70
2018-07-22T03:48:52.809Z,22.00
2018-07-22T03:51:20.494Z,21.90
2018-07-22T03:53:48.232Z,22.00
2018-07-22T03:58:43.612Z,21.80
2018-07-22T04:01:11.274Z,21.90
2018-07-22T04:03:38.987Z,21.60
2018-07-22T04:06:06.742Z,21.70
2018-07-22T04:08:34.507Z,21.60
2018-07-22T04:11:02.184Z,21.60
2018-07-22T04:13:29.919Z,21.60
2018-07-22T04:15:57.705Z,21.50
2018-07-22T04:18:25.446Z,21.60
2018-07-22T04:20:53.325Z,21.70
2018-07-22T04:23:21.138Z,21.90
2018-07-22T04:28:16.485Z,21.90
2018-07-22T04:30:44.189Z,21.90
2018-07-22T04:33:11.965Z,21.90
2018-07-22T04:35:47.865Z,22.00
2018-07-22T04:38:15.595Z,21.90
2018-07-22T04:40:43.379Z,21.90
2018-07-22T04:43:11.069Z,21.80
2018-07-22T04:45:38.799Z,21.90
2018-07-22T04:48:06.514Z,22.00
2018-07-22T04:50:34.269Z,22.10
2018-07-22T04:53:02.021Z,22.00
2018-07-22T04:55:29.704Z,21.90
2018-07-22T04:57:57.476Z,21.80
2018-07-22T05:00:25.191Z,22.10
2018-07-22T05:02:52.889Z,22.20
2018-07-22T05:05:20.626Z,22.20
2018-07-22T05:07:48.305Z,22.10
2018-07-22T05:10:16.018Z,22.10
2018-07-22T05:12:43.811Z,22.10
2018-07-22T05:15:11.528Z,22.30
2018-07-22T05:17:39.222Z,22.20
2018-07-22T05:20:07.113Z,22.30
2018-07-22T05:22:34.785Z,22.40
2018-07-22T05:25:02.603Z,22.30
2018-07-22T05:29:57.936Z,22.30
2018-07-22T05:32:25.610Z,22.50
2018-07-22T05:34:53.380Z,22.70
2018-07-22T05:37:24.467Z,22.80
2018-07-22T05:39:52.184Z,23.00
2018-07-22T05:42:19.863Z,23.00
2018-07-22T05:44:47.557Z,22.90
2018-07-22T05:47:15.211Z,23.00
2018-07-22T05:49:42.931Z,23.00
2018-07-22T05:52:10.633Z,23.20
2018-07-22T05:54:38.359Z,23.20
2018-07-22T05:57:06.043Z,23.30
2018-07-22T05:59:33.799Z,23.30
2018-07-22T06:02:01.552Z,23.30
2018-07-22T06:04:29.325Z,23.20
2018-07-22T06:06:57.051Z,23.20
2018-07-22T06:09:24.782Z,23.20
2018-07-22T06:11:52.569Z,23.20
2018-07-22T06:14:20.255Z,23.30
2018-07-22T06:16:47.988Z,23.40
2018-07-22T06:19:15.718Z,23.50
2018-07-22T06:21:43.576Z,23.50
2018-07-22T06:24:11.331Z,23.50
2018-07-22T06:26:39.168Z,23.60
2018-07-22T06:29:07.105Z,23.70
2018-07-22T06:31:34.906Z,23.60
2018-07-22T06:34:02.661Z,23.70
2018-07-22T06:36:30.436Z,23.70
2018-07-22T06:38:58.123Z,23.80
2018-07-22T06:41:25.849Z,23.70
2018-07-22T06:43:53.510Z,23.70
2018-07-22T06:46:21.294Z,23.70
2018-07-22T06:48:48.959Z,23.60
2018-07-22T06:51:16.698Z,23.80
2018-07-22T06:53:44.510Z,23.70
2018-07-22T07:01:07.542Z,23.70
2018-07-22T07:03:35.248Z,23.70
2018-07-22T07:06:03.010Z,23.80
2018-07-22T07:08:30.828Z,23.80
2018-07-22T07:10:58.534Z,23.80
2018-07-22T07:13:26.225Z,24.00
2018-07-22T07:15:53.936Z,24.10
2018-07-22T07:18:21.878Z,24.10
2018-07-22T07:20:49.699Z,24.00
2018-07-22T07:23:17.449Z,24.00
2018-07-22T07:25:45.317Z,24.00
2018-07-22T07:28:13.017Z,24.00
2018-07-22T07:30:40.757Z,24.00
2018-07-22T07:33:08.477Z,23.90
2018-07-22T07:35:36.377Z,23.90
2018-07-22T07:38:04.132Z,24.10
2018-07-22T07:40:31.849Z,24.10
2018-07-22T07:42:59.528Z,24.20
2018-07-22T07:45:27.395Z,24.20
2018-07-22T07:47:55.093Z,24.20
2018-07-22T07:50:22.921Z,24.30
2018-07-22T07:52:50.696Z,24.30
2018-07-22T07:55:18.427Z,24.50
2018-07-22T07:57:46.154Z,24.60
2018-07-22T08:00:14.107Z,24.60
2018-07-22T08:02:41.833Z,24.50
2018-07-22T08:05:09.633Z,24.30
2018-07-22T08:07:37.368Z,24.20
2018-07-22T08:10:05.828Z,24.30
2018-07-22T08:12:33.620Z,24.60
2018-07-22T08:15:01.610Z,24.70
2018-07-22T08:17:29.348Z,24.80
2018-07-22T08:19:57.058Z,24.80
2018-07-22T08:22:24.874Z,24.70
2018-07-22T08:24:52.664Z,24.90
2018-07-22T08:27:20.479Z,25.10
2018-07-22T08:29:48.197Z,25.30
2018-07-22T08:32:16.097Z,25.20
2018-07-22T08:34:43.783Z,25.20
2018-07-22T08:37:11.685Z,25.00
2018-07-22T08:39:39.361Z,25.00
2018-07-22T08:42:07.109Z,25.00
2018-07-22T08:44:34.781Z,24.90
2018-07-22T08:47:02.609Z,25.00
2018-07-22T08:49:30.416Z,25.00
2018-07-22T08:51:58.206Z,25.00
2018-07-22T08:54:25.939Z,25.30
2018-07-22T08:56:53.630Z,25.50
2018-07-22T08:59:21.322Z,25.50
2018-07-22T09:01:49.182Z,25.50
2018-07-22T09:04:16.981Z,25.50
2018-07-22T09:06:44.768Z,25.60
2018-07-22T09:09:12.706Z,25.70
2018-07-22T09:11:40.726Z,25.80
2018-07-22T09:14:09.139Z,25.60
2018-07-22T09:16:36.928Z,25.80
2018-07-22T09:19:04.714Z,25.80
2018-07-22T09:21:32.484Z,25.60
2018-07-22T09:24:00.120Z,25.60
2018-07-22T09:26:27.807Z,25.20
2018-07-22T09:28:55.575Z,25.20
2018-07-22T09:31:23.308Z,25.20
2018-07-22T09:33:51.036Z,25.30
2018-07-22T09:36:18.774Z,25.40
2018-07-22T09:41:14.271Z,25.80
2018-07-22T09:46:09.640Z,26.40
2018-07-22T09:48:37.473Z,26.40
2018-07-22T09:51:05.269Z,26.30
2018-07-22T09:53:33.058Z,26.30
2018-07-22T09:56:00.764Z,26.30
2018-07-22T09:58:28.555Z,26.10
2018-07-22T10:00:57.896Z,26.10
2018-07-22T10:03:26.604Z,26.30
2018-07-22T10:05:54.319Z,26.50
2018-07-22T10:08:22.115Z,26.40
2018-07-22T10:13:18.340Z,26.80
2018-07-22T10:15:46.070Z,27.10
2018-07-22T10:18:13.981Z,27.10
2018-07-22T10:20:41.743Z,27.10
2018-07-22T10:23:09.490Z,27.00
2018-07-22T10:25:37.225Z,27.40
2018-07-22T10:28:05.058Z,27.40
2018-07-22T10:30:32.899Z,27.50
2018-07-22T10:33:00.663Z,27.60
2018-07-22T10:35:28.332Z,27.70
2018-07-22T10:37:56.198Z,27.70
2018-07-22T10:40:23.953Z,27.80
2018-07-22T10:42:52.287Z,27.80
2018-07-22T10:45:21.702Z,28.00
2018-07-22T10:47:49.459Z,28.10
2018-07-22T10:50:17.063Z,28.00
2018-07-22T10:52:44.679Z,27.90
2018-07-22T10:55:12.348Z,27.70
2018-07-22T10:57:40.102Z,27.80
2018-07-22T11:00:08.519Z,27.90
2018-07-22T11:02:36.223Z,28.10
2018-07-22T11:05:05.071Z,28.30
2018-07-22T11:07:32.850Z,28.20
2018-07-22T11:10:00.594Z,27.90
2018-07-22T11:12:28.323Z,27.80
2018-07-22T11:14:56.098Z,27.70
2018-07-22T11:19:51.436Z,28.20
2018-07-22T11:22:19.280Z,28.20
2018-07-22T11:24:47.131Z,28.20
2018-07-22T11:27:14.846Z,28.20
2018-07-22T11:29:42.676Z,27.90
2018-07-22T11:32:10.449Z,28.30
2018-07-22T11:34:38.220Z,28.50
2018-07-22T11:37:05.957Z,28.50
2018-07-22T11:39:33.678Z,28.10
2018-07-22T11:42:01.373Z,28.30
2018-07-22T11:44:29.657Z,28.50
2018-07-22T11:46:57.457Z,28.80
2018-07-22T11:49:25.186Z,28.80
2018-07-22T11:51:52.897Z,28.50
2018-07-22T11:54:20.617Z,28.40
2018-07-22T11:56:48.514Z,28.50
2018-07-22T11:59:16.589Z,28.30
2018-07-22T12:01:44.343Z,28.30
2018-07-22T12:06:40.091Z,28.50
2018-07-22T12:09:09.666Z,28.40
2018-07-22T12:11:37.335Z,28.40
2018-07-22T12:14:05.403Z,28.60
2018-07-22T12:16:33.119Z,28.70
2018-07-22T12:21:28.532Z,28.40
2018-07-22T12:23:56.369Z,28.20
2018-07-22T12:26:24.453Z,28.10
2018-07-22T12:31:20.414Z,27.60
2018-07-22T12:33:48.340Z,27.90
2018-07-22T12:38:44.679Z,28.70
2018-07-22T12:41:12.921Z,28.80
2018-07-22T12:43:41.247Z,28.80
2018-07-22T12:48:37.045Z,29.10
2018-07-22T12:51:05.030Z,29.20
2018-07-22T12:53:32.965Z,29.30
2018-07-22T12:56:00.845Z,29.30
2018-07-22T12:58:28.722Z,29.20
2018-07-22T13:00:56.878Z,29.10
2018-07-22T13:03:24.672Z,29.10
2018-07-22T13:05:52.663Z,29.10
2018-07-22T13:10:48.798Z,29.60
2018-07-22T13:15:44.413Z,29.40
2018-07-22T13:18:12.237Z,29.30
2018-07-22T13:20:40.087Z,29.20
2018-07-22T13:23:08.830Z,29.30
2018-07-22T13:25:36.681Z,29.50
2018-07-22T13:33:04.704Z,29.90
2018-07-22T13:38:00.373Z,30.10
2018-07-22T13:40:28.216Z,30.00
2018-07-22T13:42:56.270Z,29.70
2018-07-22T13:50:19.666Z,29.90
2018-07-22T13:55:15.477Z,30.70
2018-07-22T13:57:43.552Z,30.90
2018-07-22T14:00:11.849Z,30.80
2018-07-22T14:02:39.768Z,30.40
2018-07-22T14:05:07.625Z,30.30
2018-07-22T14:07:35.541Z,30.30
2018-07-22T14:12:31.096Z,30.60
2018-07-22T14:15:06.009Z,30.20
2018-07-22T14:17:33.843Z,30.20
2018-07-22T14:20:01.728Z,30.00
2018-07-22T14:29:53.049Z,29.60
2018-07-22T14:32:20.848Z,29.50
2018-07-22T14:34:48.680Z,29.40
2018-07-22T14:37:16.538Z,29.30
2018-07-22T14:39:44.507Z,29.50
2018-07-22T14:42:12.346Z,29.40
2018-07-22T14:44:40.142Z,29.30
2018-07-22T14:52:03.630Z,28.90
2018-07-22T14:54:31.596Z,28.70
2018-07-22T14:56:59.605Z,28.50
2018-07-22T14:59:27.698Z,28.40
2018-07-22T15:04:23.480Z,28.20
2018-07-22T15:06:51.437Z,28.10
2018-07-22T15:09:19.217Z,28.00
2018-07-22T15:11:47.077Z,27.70
2018-07-22T15:14:14.849Z,27.70
2018-07-22T15:16:43.026Z,27.80
2018-07-22T15:19:10.843Z,28.00
2018-07-22T15:21:38.686Z,28.20
2018-07-22T15:24:06.592Z,28.10
2018-07-22T15:26:34.495Z,28.00
2018-07-22T15:29:02.334Z,27.90
2018-07-22T15:31:30.165Z,28.00
2018-07-22T15:33:57.961Z,27.90
2018-07-22T15:36:25.916Z,27.90
2018-07-22T15:38:53.795Z,27.80
2018-07-22T15:41:21.624Z,27.90
2018-07-22T15:43:49.450Z,28.00
2018-07-22T15:46:17.457Z,28.10
2018-07-22T15:51:13.072Z,28.80
2018-07-22T15:53:40.818Z,29.60
2018-07-22T15:56:08.682Z,29.50
2018-07-22T15:58:36.556Z,29.10
2018-07-22T16:05:59.878Z,28.20
2018-07-22T16:08:27.640Z,27.90
2018-07-22T16:13:23.252Z,27.70
2018-07-22T16:15:51.060Z,27.70
2018-07-22T16:18:19.176Z,27.70
2018-07-22T16:20:46.974Z,27.60
2018-07-22T16:23:14.854Z,27.60
2018-07-22T16:25:42.770Z,27.60
2018-07-22T16:33:06.176Z,27.70
2018-07-22T16:38:01.690Z,27.80
2018-07-22T16:40:29.384Z,28.00
2018-07-22T16:42:57.155Z,28.00
2018-07-22T16:45:24.923Z,27.80
2018-07-22T16:47:52.802Z,28.00
2018-07-22T16:50:20.645Z,28.00
2018-07-22T16:52:48.437Z,28.20
2018-07-22T16:55:16.181Z,28.10
2018-07-22T16:57:44.030Z,28.00
2018-07-22T17:05:07.720Z,28.00
2018-07-22T17:12:31.056Z,28.00
2018-07-22T17:14:58.843Z,28.10
2018-07-22T17:17:26.735Z,28.00
2018-07-22T17:19:54.731Z,27.60
2018-07-22T17:22:22.514Z,27.50
2018-07-22T17:24:50.314Z,27.70
2018-07-22T17:27:18.181Z,27.60
2018-07-22T17:29:46.187Z,27.40
2018-07-22T17:32:14.031Z,27.20
2018-07-22T17:37:09.800Z,27.10
2018-07-22T17:39:37.622Z,26.70
2018-07-22T17:44:33.264Z,27.40
2018-07-22T17:47:00.964Z,27.50
2018-07-22T17:49:28.877Z,27.50
2018-07-22T17:51:56.674Z,27.90
2018-07-22T17:59:20.008Z,28.60
2018-07-22T18:01:47.770Z,28.90
2018-07-22T18:04:15.635Z,29.00
2018-07-22T18:09:11.263Z,29.50
2018-07-22T18:14:07.238Z,28.30
2018-07-22T18:16:35.516Z,27.90
2018-07-22T18:19:03.417Z,27.10
2018-07-22T18:21:31.207Z,26.50
2018-07-22T18:23:59.087Z,26.90
2018-07-22T18:28:54.692Z,26.00
2018-07-22T18:31:22.582Z,26.10
2018-07-22T18:33:50.377Z,25.80
2018-07-22T18:36:18.373Z,25.90
2018-07-22T18:38:46.301Z,25.80
2018-07-22T18:41:14.157Z,25.80
2018-07-22T18:43:42.289Z,25.60
2018-07-22T18:46:10.113Z,25.50
2018-07-22T18:48:38.181Z,25.10
2018-07-22T18:51:06.321Z,24.90
2018-07-22T18:53:34.178Z,24.80
2018-07-22T18:58:29.952Z,25.20
2018-07-22T19:00:57.860Z,24.90
2018-07-22T19:03:25.714Z,25.20
2018-07-22T19:05:53.580Z,25.40
2018-07-22T19:08:21.447Z,25.50
2018-07-22T19:10:49.359Z,25.00
2018-07-22T19:13:17.393Z,25.10
2018-07-22T19:15:45.367Z,24.90
2018-07-22T19:18:13.377Z,24.70
2018-07-22T19:20:41.411Z,24.60
2018-07-22T19:28:04.835Z,24.50
2018-07-22T19:30:32.764Z,24.30
2018-07-22T19:33:00.642Z,24.20
2018-07-22T19:35:28.527Z,24.20
2018-07-22T19:37:56.435Z,24.10
2018-07-22T19:40:24.406Z,24.10
2018-07-22T19:42:52.339Z,24.20
2018-07-22T19:45:20.343Z,24.20
2018-07-22T19:47:48.250Z,24.10
2018-07-22T19:50:16.239Z,24.10
2018-07-22T19:52:44.280Z,24.00
2018-07-22T19:55:12.184Z,23.70
2018-07-22T19:57:40.089Z,23.90
2018-07-22T20:00:08.566Z,23.90
2018-07-22T20:02:36.768Z,23.80
2018-07-22T20:05:04.808Z,23.60
2018-07-22T20:07:32.717Z,23.40
2018-07-22T20:12:28.378Z,23.20
2018-07-22T20:17:23.957Z,22.90
2018-07-22T20:19:51.951Z,23.10
2018-07-22T20:27:15.266Z,22.90
2018-07-22T20:29:43.328Z,22.90
2018-07-22T20:32:11.486Z,23.00
2018-07-22T20:34:39.389Z,23.20
2018-07-22T20:37:07.313Z,22.90
2018-07-22T20:39:35.315Z,23.20
2018-07-22T20:42:03.129Z,22.70
2018-07-22T20:44:30.993Z,22.80
2018-07-22T20:46:58.896Z,22.60
2018-07-22T20:49:26.847Z,22.70
2018-07-22T20:51:54.669Z,22.30
2018-07-22T20:54:22.581Z,22.40
2018-07-22T20:56:50.481Z,22.80
2018-07-22T20:59:18.408Z,22.60
2018-07-22T21:04:14.056Z,22.30
2018-07-22T21:06:41.897Z,22.30
2018-07-22T21:09:09.982Z,22.20
2018-07-22T21:15:16.722Z,22.40
2018-07-22T21:17:45.970Z,22.40
2018-07-22T21:20:14.529Z,22.20
2018-07-22T21:22:42.368Z,22.00
2018-07-22T21:25:10.516Z,21.90
2018-07-22T21:27:38.344Z,21.60
2018-07-22T21:30:07.003Z,22.10
2018-07-22T21:32:34.836Z,21.90
2018-07-22T21:35:02.711Z,21.60
2018-07-22T21:37:30.571Z,21.90
2018-07-22T21:39:58.521Z,21.80
2018-07-22T21:42:26.316Z,21.90
2018-07-22T21:44:54.139Z,22.00
2018-07-22T21:47:21.989Z,22.10
2018-07-22T21:52:17.839Z,21.80
2018-07-22T21:57:13.441Z,21.40
2018-07-22T21:59:41.345Z,21.30
2018-07-22T22:02:09.263Z,21.40
2018-07-22T22:04:37.096Z,21.30
2018-07-22T22:07:05.077Z,21.10
2018-07-22T22:09:33.037Z,20.90
2018-07-22T22:12:00.978Z,21.10
2018-07-22T22:14:29.024Z,21.10
2018-07-22T22:16:57.006Z,20.80
2018-07-22T22:21:52.644Z,20.90
2018-07-22T22:24:20.828Z,20.80
2018-07-22T22:26:48.816Z,20.70
2018-07-22T22:29:16.733Z,20.70
2018-07-22T22:31:44.610Z,20.80
2018-07-22T22:34:12.450Z,20.90
2018-07-22T22:36:40.392Z,20.60
2018-07-22T22:39:10.725Z,20.70
2018-07-22T22:41:38.669Z,20.50
2018-07-22T22:44:06.708Z,20.30
2018-07-22T22:46:34.669Z,20.60
2018-07-22T22:51:30.307Z,20.80
2018-07-22T22:56:25.995Z,20.10
2018-07-22T22:59:05.493Z,20.30
2018-07-22T23:01:33.523Z,20.50
2018-07-22T23:04:01.356Z,20.40
2018-07-22T23:06:29.210Z,20.50
2018-07-22T23:08:57.168Z,20.50
2018-07-22T23:11:25.052Z,20.60
2018-07-22T23:13:52.863Z,20.70
2018-07-22T23:16:20.731Z,20.50
2018-07-22T23:18:48.733Z,20.20
2018-07-22T23:21:16.604Z,19.90
2018-07-22T23:23:44.542Z,19.50
2018-07-22T23:26:12.380Z,19.70
2018-07-22T23:28:40.303Z,20.10
2018-07-22T23:31:08.092Z,20.20
2018-07-22T23:33:35.901Z,20.20
2018-07-22T23:38:31.457Z,20.40
2018-07-22T23:40:59.304Z,20.50
2018-07-22T23:43:27.118Z,20.60
2018-07-22T23:45:55.052Z,20.70
2018-07-22T23:48:22.863Z,20.40
2018-07-22T23:50:50.748Z,20.40
2018-07-22T23:55:46.355Z,20.00
2018-07-22T23:58:14.333Z,19.90
